createdAt,value
2022-11-27T00:01:25.696Z,120.97
2022-11-27T00:06:23.232Z,124.93
2022-11-27T00:11:20.683Z,120.25
2022-11-27T00:16:17.618Z,119.43
2022-11-27T00:21:15.133Z,116.55
2022-11-27T00:26:11.379Z,121.22
2022-11-27T00:31:12.194Z,124.72
2022-11-27T00:36:08.698Z,123.40
2022-11-27T00:41:06.075Z,117.45
2022-11-27T00:46:02.287Z,122.82
2022-11-27T00:50:59.669Z,118.78
2022-11-27T00:55:56.313Z,124.82
2022-11-27T01:00:59.965Z,125.88
2022-11-27T01:05:56.209Z,121.63
2022-11-27T01:10:56.867Z,119.38
2022-11-27T01:15:59.903Z,121.05
2022-11-27T01:20:56.674Z,115.47
2022-11-27T01:25:53.737Z,121.97
2022-11-27T01:30:50.075Z,122.78
2022-11-27T01:36:12.588Z,123.05
2022-11-27T01:41:19.457Z,123.75
2022-11-27T01:46:25.203Z,117.65
2022-11-27T01:51:22.633Z,122.18
2022-11-27T01:56:19.644Z,121.60
2022-11-27T02:01:16.004Z,116.70
2022-11-27T02:06:12.798Z,119.85
2022-11-27T02:11:27.814Z,126.43
2022-11-27T02:16:24.189Z,125.32
2022-11-27T02:21:33.417Z,127.78
2022-11-27T02:26:56.204Z,128.25
2022-11-27T02:31:58.211Z,129.70
2022-11-27T02:37:03.357Z,122.93
2022-11-27T02:42:02.131Z,125.57
2022-11-27T02:46:58.556Z,123.63
2022-11-27T02:51:57.121Z,122.15
2022-11-27T02:56:54.457Z,122.30
2022-11-27T03:01:53.420Z,127.20
2022-11-27T03:06:52.369Z,125.80
2022-11-27T03:11:48.780Z,123.88
2022-11-27T03:17:05.310Z,120.43
2022-11-27T03:22:02.594Z,124.70
2022-11-27T03:26:58.977Z,122.13
2022-11-27T03:31:56.021Z,120.15
2022-11-27T03:36:52.256Z,121.45
2022-11-27T03:42:05.606Z,118.60
2022-11-27T03:47:25.667Z,117.80
2022-11-27T03:52:35.618Z,120.22
2022-11-27T03:57:37.393Z,120.70
2022-11-27T04:02:41.942Z,118.53
2022-11-27T04:07:38.375Z,118.88
2022-11-27T04:12:34.645Z,119.50
2022-11-27T04:17:30.864Z,124.47
2022-11-27T04:22:27.049Z,119.47
2022-11-27T04:27:23.286Z,120.80
2022-11-27T04:32:19.598Z,121.22
2022-11-27T04:37:15.863Z,121.30
2022-11-27T04:42:12.172Z,119.18
2022-11-27T04:47:09.013Z,126.40
2022-11-27T04:52:05.249Z,122.93
2022-11-27T04:57:01.482Z,125.18
2022-11-27T05:01:57.857Z,131.57
2022-11-27T05:06:54.037Z,129.07
2022-11-27T05:11:50.340Z,127.53
2022-11-27T05:16:47.985Z,130.65
2022-11-27T05:21:44.421Z,128.43
2022-11-27T05:26:41.057Z,129.75
2022-11-27T05:31:37.738Z,133.60
2022-11-27T05:36:35.082Z,129.65
2022-11-27T05:41:31.338Z,133.20
2022-11-27T05:46:27.542Z,126.50
2022-11-27T05:51:24.717Z,129.18
2022-11-27T05:56:20.978Z,127.00
2022-11-27T06:01:17.849Z,123.25
2022-11-27T06:06:15.613Z,119.72
2022-11-27T06:11:19.394Z,116.90
2022-11-27T06:16:20.198Z,111.90
2022-11-27T06:21:16.968Z,108.85
2022-11-27T06:26:14.856Z,111.78
2022-11-27T06:31:17.508Z,104.82
2022-11-27T06:36:14.563Z,105.93
2022-11-27T06:41:12.425Z,112.00
2022-11-27T06:46:11.292Z,110.43
2022-11-27T06:51:08.438Z,109.93
2022-11-27T06:56:09.000Z,107.20
2022-11-27T07:01:09.903Z,109.90
2022-11-27T07:06:07.345Z,112.55
2022-11-27T07:11:04.872Z,108.22
2022-11-27T07:16:02.055Z,108.05
2022-11-27T07:20:58.377Z,106.18
2022-11-27T07:25:54.602Z,107.93
2022-11-27T07:30:54.797Z,108.25
2022-11-27T07:35:57.388Z,112.93
2022-11-27T07:45:50.438Z,110.50
2022-11-27T07:50:46.748Z,110.03
2022-11-27T07:55:43.058Z,117.32
2022-11-27T08:00:39.293Z,114.35
2022-11-27T08:05:36.140Z,110.30
2022-11-27T08:10:36.204Z,113.20
2022-11-27T08:15:32.646Z,115.40
2022-11-27T08:20:29.052Z,117.97
2022-11-27T08:25:25.408Z,122.03
2022-11-27T08:30:23.920Z,118.85
2022-11-27T08:35:20.334Z,114.93
2022-11-27T08:40:16.838Z,120.68
2022-11-27T08:45:13.161Z,125.72
2022-11-27T08:50:09.690Z,119.97
2022-11-27T08:55:06.215Z,120.90
2022-11-27T09:00:02.583Z,115.30
2022-11-27T09:04:58.811Z,113.35
2022-11-27T09:09:55.052Z,110.85
2022-11-27T09:14:51.405Z,108.10
2022-11-27T09:19:47.757Z,102.05
2022-11-27T09:24:44.441Z,108.95
2022-11-27T09:29:40.635Z,100.80
2022-11-27T09:34:37.693Z,95.43
2022-11-27T09:39:34.218Z,83.15
2022-11-27T09:44:45.436Z,86.20
2022-11-27T09:49:44.047Z,81.70
2022-11-27T09:54:52.146Z,87.80
2022-11-27T09:59:50.509Z,86.53
2022-11-27T10:05:12.491Z,74.97
2022-11-27T10:10:18.684Z,68.95
2022-11-27T10:15:15.822Z,66.15
2022-11-27T10:20:12.961Z,60.97
2022-11-27T10:25:09.329Z,59.40
2022-11-27T10:30:15.211Z,58.17
2022-11-27T10:35:14.371Z,58.92
2022-11-27T10:40:11.697Z,58.55
2022-11-27T10:45:17.316Z,53.10
2022-11-27T10:50:14.970Z,52.47
2022-11-27T10:55:15.951Z,49.10
2022-11-27T11:00:14.632Z,46.67
2022-11-27T11:05:32.847Z,44.45
2022-11-27T11:10:27.114Z,43.80
2022-11-27T11:15:23.405Z,41.00
2022-11-27T11:20:23.480Z,39.88
2022-11-27T11:25:20.884Z,40.25
2022-11-27T11:30:21.493Z,41.33
2022-11-27T11:35:36.749Z,41.67
2022-11-27T11:40:34.783Z,41.75
2022-11-27T11:45:33.187Z,41.75
2022-11-27T11:50:37.190Z,42.75
2022-11-27T11:55:52.366Z,44.58
2022-11-27T12:01:26.075Z,41.03
2022-11-27T12:06:05.984Z,41.95
2022-11-27T12:11:08.660Z,42.58
2022-11-27T12:21:15.892Z,41.42
2022-11-27T12:26:30.279Z,40.22
2022-11-27T12:31:45.096Z,40.03
2022-11-27T12:36:54.773Z,38.53
2022-11-27T12:41:59.769Z,36.13
2022-11-27T12:46:59.392Z,37.55
2022-11-27T12:52:02.694Z,39.22
2022-11-27T12:57:02.147Z,37.63
2022-11-27T13:02:17.286Z,39.40
2022-11-27T13:07:38.797Z,41.03
2022-11-27T13:12:42.973Z,40.25
2022-11-27T13:17:41.218Z,42.53
2022-11-27T13:22:37.573Z,42.08
2022-11-27T13:27:35.257Z,40.10
2022-11-27T13:32:41.212Z,42.65
2022-11-27T13:37:40.872Z,42.47
2022-11-27T13:42:43.060Z,46.85
2022-11-27T13:47:41.489Z,46.50
2022-11-27T13:52:38.239Z,45.25
2022-11-27T13:57:34.634Z,45.03
2022-11-27T14:02:40.306Z,46.28
2022-11-27T14:07:41.655Z,48.17
2022-11-27T14:12:38.395Z,46.97
2022-11-27T14:17:36.875Z,46.33
2022-11-27T14:22:44.223Z,47.25
2022-11-27T14:27:57.059Z,47.17
2022-11-27T14:32:53.515Z,46.08
2022-11-27T14:37:49.880Z,46.33
2022-11-27T14:42:46.207Z,47.70
2022-11-27T14:47:46.785Z,47.53
2022-11-27T14:52:43.875Z,49.80
2022-11-27T14:57:40.411Z,49.33
2022-11-27T15:02:36.806Z,51.20
2022-11-27T15:07:41.867Z,53.08
2022-11-27T15:12:45.216Z,54.60
2022-11-27T15:17:44.439Z,55.35
2022-11-27T15:22:48.304Z,54.75
2022-11-27T15:27:45.822Z,56.80
2022-11-27T15:32:50.933Z,54.90
2022-11-27T15:37:47.330Z,56.30
2022-11-27T15:42:43.822Z,58.83
2022-11-27T15:47:41.456Z,59.13
2022-11-27T15:52:37.719Z,62.72
2022-11-27T15:57:33.945Z,67.22
2022-11-27T16:02:31.035Z,60.70
2022-11-27T16:07:27.537Z,66.32
2022-11-27T16:12:23.805Z,65.38
2022-11-27T16:17:20.047Z,68.45
2022-11-27T16:22:16.305Z,67.35
2022-11-27T16:27:12.504Z,64.90
2022-11-27T16:32:08.929Z,65.20
2022-11-27T16:37:05.183Z,64.05
2022-11-27T16:42:01.536Z,66.70
2022-11-27T16:46:57.837Z,62.13
2022-11-27T16:51:54.137Z,59.00
2022-11-27T16:56:50.468Z,58.90
2022-11-27T17:01:46.973Z,56.47
2022-11-27T17:06:43.304Z,55.67
2022-11-27T17:11:43.435Z,53.28
2022-11-27T17:16:41.365Z,54.22
2022-11-27T17:21:37.710Z,51.65
2022-11-27T17:26:35.222Z,51.55
2022-11-27T17:31:36.815Z,54.80
2022-11-27T17:36:36.891Z,52.65
2022-11-27T17:41:35.136Z,51.53
2022-11-27T17:46:32.403Z,52.17
2022-11-27T17:51:30.035Z,50.35
2022-11-27T17:56:26.747Z,47.53
2022-11-27T18:01:24.114Z,48.58
2022-11-27T18:06:20.509Z,48.55
2022-11-27T18:11:18.068Z,45.85
2022-11-27T18:16:16.389Z,44.47
2022-11-27T18:21:18.041Z,44.55
2022-11-27T18:26:16.497Z,46.67
2022-11-27T18:31:14.417Z,43.03
2022-11-27T18:36:11.380Z,46.10
2022-11-27T18:41:13.472Z,45.55
2022-11-27T18:46:10.794Z,45.75
2022-11-27T18:51:07.179Z,45.58
2022-11-27T18:56:04.628Z,49.90
2022-11-27T19:01:01.855Z,45.92
2022-11-27T19:05:59.787Z,49.83
2022-11-27T19:11:00.084Z,53.70
2022-11-27T19:15:56.542Z,53.10
2022-11-27T19:20:54.880Z,50.42
2022-11-27T19:25:51.113Z,51.75
2022-11-27T19:30:47.345Z,50.38
2022-11-27T19:35:43.563Z,52.00
2022-11-27T19:40:41.430Z,48.90
2022-11-27T19:45:37.838Z,50.13
2022-11-27T19:50:34.120Z,51.30
2022-11-27T19:55:31.009Z,51.25
2022-11-27T20:00:27.300Z,50.33
2022-11-27T20:05:23.550Z,47.45
2022-11-27T20:10:19.873Z,50.20
2022-11-27T20:15:16.838Z,46.25
2022-11-27T20:20:13.390Z,46.35
2022-11-27T20:25:19.377Z,46.55
2022-11-27T20:30:16.339Z,45.75
2022-11-27T20:35:12.554Z,49.20
2022-11-27T20:40:09.006Z,48.58
2022-11-27T20:45:05.476Z,48.13
2022-11-27T20:50:02.894Z,47.33
2022-11-27T20:54:59.170Z,48.28
2022-11-27T20:59:56.081Z,47.05
2022-11-27T21:04:52.330Z,51.78
2022-11-27T21:09:48.558Z,48.45
2022-11-27T21:14:44.833Z,48.95
2022-11-27T21:19:41.314Z,46.83
2022-11-27T21:24:37.753Z,47.78
2022-11-27T21:29:34.008Z,47.78
2022-11-27T21:34:30.358Z,46.72
2022-11-27T21:39:26.712Z,46.03
2022-11-27T21:44:23.580Z,46.03
2022-11-27T21:49:20.305Z,46.92
2022-11-27T21:54:17.548Z,46.63
2022-11-27T21:59:14.150Z,46.35
2022-11-27T22:04:10.501Z,45.90
2022-11-27T22:09:11.849Z,46.10
2022-11-27T22:14:11.517Z,45.17
2022-11-27T22:19:07.933Z,46.05
2022-11-27T22:24:04.384Z,48.88
2022-11-27T22:29:00.679Z,46.00
2022-11-27T22:33:57.301Z,46.80
2022-11-27T22:38:54.663Z,50.00
2022-11-27T22:43:51.337Z,47.40
2022-11-27T22:48:47.874Z,50.10
2022-11-27T22:53:44.081Z,48.28
2022-11-27T22:58:41.933Z,49.70
2022-11-27T23:03:40.141Z,43.78
2022-11-27T23:08:36.634Z,45.25
2022-11-27T23:13:32.895Z,43.50
2022-11-27T23:18:29.089Z,46.30
2022-11-27T23:23:25.412Z,46.20
2022-11-27T23:28:21.689Z,45.03
2022-11-27T23:33:17.937Z,47.58
2022-11-27T23:38:14.178Z,48.05
2022-11-27T23:43:10.428Z,50.25
2022-11-27T23:48:06.675Z,48.33
2022-11-27T23:53:03.044Z,48.22
2022-11-27T23:57:59.408Z,44.80
